sensor_id;sensor_type;location;lat;lon;timestamp;P1;durP1;ratioP1;P2;durP2;ratioP2
57327;SDS011;43162;51.040;18.244;2023-04-06T00:00:50;37.90;;;17.10;;
57327;SDS011;43162;51.040;18.244;2023-04-06T00:03:15;30.00;;;14.60;;
57327;SDS011;43162;51.040;18.244;2023-04-06T00:05:42;35.70;;;17.10;;
57327;SDS011;43162;51.040;18.244;2023-04-06T00:08:08;33.70;;;15.70;;
57327;SDS011;43162;51.040;18.244;2023-04-06T00:10:33;36.80;;;16.70;;
57327;SDS011;43162;51.040;18.244;2023-04-06T00:12:59;27.20;;;12.70;;
57327;SDS011;43162;51.040;18.244;2023-04-06T00:15:26;33.10;;;17.50;;
57327;SDS011;43162;51.040;18.244;2023-04-06T00:17:51;27.10;;;13.60;;
57327;SDS011;43162;51.040;18.244;2023-04-06T00:20:17;32.30;;;15.00;;
57327;SDS011;43162;51.040;18.244;2023-04-06T00:22:43;28.20;;;13.10;;
57327;SDS011;43162;51.040;18.244;2023-04-06T00:25:10;34.10;;;17.10;;
57327;SDS011;43162;51.040;18.244;2023-04-06T00:27:36;33.10;;;17.10;;
57327;SDS011;43162;51.040;18.244;2023-04-06T00:30:05;34.00;;;14.70;;
57327;SDS011;43162;51.040;18.244;2023-04-06T00:32:32;32.50;;;15.20;;
57327;SDS011;43162;51.040;18.244;2023-04-06T00:34:58;38.80;;;15.90;;
57327;SDS011;43162;51.040;18.244;2023-04-06T00:37:23;19.80;;;11.50;;
57327;SDS011;43162;51.040;18.244;2023-04-06T00:39:49;27.90;;;14.60;;
57327;SDS011;43162;51.040;18.244;2023-04-06T00:42:16;31.00;;;15.60;;
57327;SDS011;43162;51.040;18.244;2023-04-06T00:44:50;23.80;;;13.10;;
57327;SDS011;43162;51.040;18.244;2023-04-06T00:47:17;27.80;;;14.30;;
57327;SDS011;43162;51.040;18.244;2023-04-06T00:49:43;31.40;;;15.30;;
57327;SDS011;43162;51.040;18.244;2023-04-06T00:52:09;32.40;;;15.90;;
57327;SDS011;43162;51.040;18.244;2023-04-06T00:54:35;27.60;;;13.80;;
57327;SDS011;43162;51.040;18.244;2023-04-06T00:57:01;35.40;;;15.00;;
57327;SDS011;43162;51.040;18.244;2023-04-06T00:59:27;28.20;;;12.80;;
57327;SDS011;43162;51.040;18.244;2023-04-06T01:01:53;29.10;;;11.80;;
57327;SDS011;43162;51.040;18.244;2023-04-06T01:04:20;26.40;;;14.50;;
57327;SDS011;43162;51.040;18.244;2023-04-06T01:06:48;30.60;;;14.20;;
57327;SDS011;43162;51.040;18.244;2023-04-06T01:09:15;30.80;;;16.20;;
57327;SDS011;43162;51.040;18.244;2023-04-06T01:11:40;32.70;;;17.40;;
57327;SDS011;43162;51.040;18.244;2023-04-06T01:14:06;31.50;;;15.90;;
57327;SDS011;43162;51.040;18.244;2023-04-06T01:16:32;34.60;;;17.80;;
57327;SDS011;43162;51.040;18.244;2023-04-06T01:18:58;39.00;;;17.70;;
57327;SDS011;43162;51.040;18.244;2023-04-06T01:21:23;32.90;;;16.60;;
57327;SDS011;43162;51.040;18.244;2023-04-06T01:23:49;37.30;;;17.30;;
57327;SDS011;43162;51.040;18.244;2023-04-06T01:26:14;31.70;;;16.00;;
57327;SDS011;43162;51.040;18.244;2023-04-06T01:28:40;29.40;;;14.70;;
57327;SDS011;43162;51.040;18.244;2023-04-06T01:31:06;30.90;;;15.50;;
57327;SDS011;43162;51.040;18.244;2023-04-06T01:33:33;26.80;;;14.60;;
57327;SDS011;43162;51.040;18.244;2023-04-06T01:35:59;30.80;;;16.80;;
57327;SDS011;43162;51.040;18.244;2023-04-06T01:38:25;28.40;;;16.30;;
57327;SDS011;43162;51.040;18.244;2023-04-06T01:40:52;37.60;;;15.90;;
57327;SDS011;43162;51.040;18.244;2023-04-06T01:43:18;25.10;;;16.10;;
57327;SDS011;43162;51.040;18.244;2023-04-06T01:45:44;30.20;;;16.80;;
57327;SDS011;43162;51.040;18.244;2023-04-06T01:48:10;37.50;;;18.20;;
57327;SDS011;43162;51.040;18.244;2023-04-06T01:50:35;31.10;;;15.60;;
57327;SDS011;43162;51.040;18.244;2023-04-06T01:53:01;30.20;;;17.00;;
57327;SDS011;43162;51.040;18.244;2023-04-06T01:55:27;29.30;;;15.60;;
57327;SDS011;43162;51.040;18.244;2023-04-06T01:57:52;41.30;;;20.60;;
57327;SDS011;43162;51.040;18.244;2023-04-06T02:00:18;29.90;;;17.30;;
57327;SDS011;43162;51.040;18.244;2023-04-06T02:02:44;34.30;;;16.90;;
57327;SDS011;43162;51.040;18.244;2023-04-06T02:05:10;39.20;;;17.10;;
57327;SDS011;43162;51.040;18.244;2023-04-06T02:07:36;37.60;;;19.70;;
57327;SDS011;43162;51.040;18.244;2023-04-06T02:10:02;33.70;;;18.40;;
57327;SDS011;43162;51.040;18.244;2023-04-06T02:12:28;34.20;;;17.10;;
57327;SDS011;43162;51.040;18.244;2023-04-06T02:14:54;34.60;;;17.10;;
57327;SDS011;43162;51.040;18.244;2023-04-06T02:17:20;30.30;;;16.30;;
57327;SDS011;43162;51.040;18.244;2023-04-06T02:19:47;43.10;;;20.20;;
57327;SDS011;43162;51.040;18.244;2023-04-06T02:22:12;34.80;;;18.10;;
57327;SDS011;43162;51.040;18.244;2023-04-06T02:24:38;40.50;;;20.40;;
57327;SDS011;43162;51.040;18.244;2023-04-06T02:27:04;37.50;;;18.70;;
57327;SDS011;43162;51.040;18.244;2023-04-06T02:29:30;34.70;;;17.50;;
57327;SDS011;43162;51.040;18.244;2023-04-06T02:31:55;36.40;;;19.20;;
57327;SDS011;43162;51.040;18.244;2023-04-06T02:34:21;40.80;;;20.50;;
57327;SDS011;43162;51.040;18.244;2023-04-06T02:36:47;34.10;;;18.80;;
57327;SDS011;43162;51.040;18.244;2023-04-06T02:39:13;32.90;;;17.00;;
57327;SDS011;43162;51.040;18.244;2023-04-06T02:41:39;36.20;;;17.20;;
57327;SDS011;43162;51.040;18.244;2023-04-06T02:44:08;31.50;;;17.80;;
57327;SDS011;43162;51.040;18.244;2023-04-06T02:46:34;30.00;;;16.40;;
57327;SDS011;43162;51.040;18.244;2023-04-06T02:49:00;35.10;;;16.10;;
57327;SDS011;43162;51.040;18.244;2023-04-06T02:51:26;38.90;;;17.70;;
57327;SDS011;43162;51.040;18.244;2023-04-06T02:53:52;31.10;;;15.90;;
57327;SDS011;43162;51.040;18.244;2023-04-06T02:56:18;34.10;;;16.70;;
57327;SDS011;43162;51.040;18.244;2023-04-06T02:58:46;28.80;;;16.10;;
57327;SDS011;43162;51.040;18.244;2023-04-06T03:01:12;30.80;;;16.00;;
57327;SDS011;43162;51.040;18.244;2023-04-06T03:03:37;34.10;;;16.70;;
57327;SDS011;43162;51.040;18.244;2023-04-06T03:06:04;33.90;;;20.40;;
57327;SDS011;43162;51.040;18.244;2023-04-06T03:08:30;35.90;;;20.00;;
57327;SDS011;43162;51.040;18.244;2023-04-06T03:10:55;34.50;;;18.50;;
57327;SDS011;43162;51.040;18.244;2023-04-06T03:13:21;36.10;;;19.00;;
57327;SDS011;43162;51.040;18.244;2023-04-06T03:15:47;29.60;;;17.70;;
57327;SDS011;43162;51.040;18.244;2023-04-06T03:18:12;36.80;;;17.40;;
57327;SDS011;43162;51.040;18.244;2023-04-06T03:20:38;31.90;;;18.00;;
57327;SDS011;43162;51.040;18.244;2023-04-06T03:23:04;45.00;;;22.40;;
57327;SDS011;43162;51.040;18.244;2023-04-06T03:25:29;69.70;;;30.40;;
57327;SDS011;43162;51.040;18.244;2023-04-06T03:27:55;54.40;;;25.40;;
57327;SDS011;43162;51.040;18.244;2023-04-06T03:30:21;62.50;;;30.30;;
57327;SDS011;43162;51.040;18.244;2023-04-06T03:32:47;60.20;;;27.00;;
57327;SDS011;43162;51.040;18.244;2023-04-06T03:35:12;54.30;;;24.20;;
57327;SDS011;43162;51.040;18.244;2023-04-06T03:37:38;52.20;;;25.90;;
57327;SDS011;43162;51.040;18.244;2023-04-06T03:40:04;52.50;;;25.60;;
57327;SDS011;43162;51.040;18.244;2023-04-06T03:42:31;52.50;;;24.10;;
57327;SDS011;43162;51.040;18.244;2023-04-06T03:44:58;41.60;;;20.50;;
57327;SDS011;43162;51.040;18.244;2023-04-06T03:47:24;52.30;;;23.50;;
57327;SDS011;43162;51.040;18.244;2023-04-06T03:49:50;41.20;;;21.30;;
57327;SDS011;43162;51.040;18.244;2023-04-06T03:52:16;45.00;;;21.50;;
57327;SDS011;43162;51.040;18.244;2023-04-06T03:54:42;37.70;;;18.70;;
57327;SDS011;43162;51.040;18.244;2023-04-06T03:57:07;37.90;;;19.40;;
57327;SDS011;43162;51.040;18.244;2023-04-06T03:59:33;39.60;;;19.40;;
57327;SDS011;43162;51.040;18.244;2023-04-06T04:01:59;40.40;;;21.00;;
57327;SDS011;43162;51.040;18.244;2023-04-06T04:04:25;43.60;;;21.10;;
57327;SDS011;43162;51.040;18.244;2023-04-06T04:06:51;45.10;;;19.60;;
57327;SDS011;43162;51.040;18.244;2023-04-06T04:09:16;33.70;;;19.00;;
57327;SDS011;43162;51.040;18.244;2023-04-06T04:11:42;32.10;;;16.80;;
57327;SDS011;43162;51.040;18.244;2023-04-06T04:14:08;32.00;;;17.00;;
57327;SDS011;43162;51.040;18.244;2023-04-06T04:16:34;36.20;;;18.90;;
57327;SDS011;43162;51.040;18.244;2023-04-06T04:18:59;38.40;;;21.30;;
57327;SDS011;43162;51.040;18.244;2023-04-06T04:21:25;36.70;;;18.40;;
57327;SDS011;43162;51.040;18.244;2023-04-06T04:23:51;38.00;;;20.00;;
57327;SDS011;43162;51.040;18.244;2023-04-06T04:26:18;46.90;;;23.80;;
57327;SDS011;43162;51.040;18.244;2023-04-06T04:28:43;59.00;;;30.60;;
57327;SDS011;43162;51.040;18.244;2023-04-06T04:31:09;58.10;;;26.50;;
57327;SDS011;43162;51.040;18.244;2023-04-06T04:33:35;51.60;;;26.20;;
57327;SDS011;43162;51.040;18.244;2023-04-06T04:36:01;54.70;;;26.40;;
57327;SDS011;43162;51.040;18.244;2023-04-06T04:38:26;42.40;;;22.80;;
57327;SDS011;43162;51.040;18.244;2023-04-06T04:40:52;38.80;;;19.80;;
57327;SDS011;43162;51.040;18.244;2023-04-06T04:43:18;46.50;;;21.50;;
57327;SDS011;43162;51.040;18.244;2023-04-06T04:45:43;59.30;;;30.20;;
57327;SDS011;43162;51.040;18.244;2023-04-06T04:48:09;37.10;;;18.80;;
57327;SDS011;43162;51.040;18.244;2023-04-06T04:50:35;32.50;;;16.90;;
57327;SDS011;43162;51.040;18.244;2023-04-06T04:53:00;30.90;;;16.30;;
57327;SDS011;43162;51.040;18.244;2023-04-06T04:55:26;44.70;;;21.80;;
57327;SDS011;43162;51.040;18.244;2023-04-06T04:57:52;88.10;;;29.70;;
57327;SDS011;43162;51.040;18.244;2023-04-06T05:00:18;60.50;;;25.90;;
57327;SDS011;43162;51.040;18.244;2023-04-06T05:02:45;52.80;;;24.90;;
57327;SDS011;43162;51.040;18.244;2023-04-06T05:05:10;41.90;;;20.20;;
57327;SDS011;43162;51.040;18.244;2023-04-06T05:07:36;55.40;;;23.50;;
57327;SDS011;43162;51.040;18.244;2023-04-06T05:10:01;49.80;;;24.40;;
57327;SDS011;43162;51.040;18.244;2023-04-06T05:12:28;45.50;;;23.10;;
57327;SDS011;43162;51.040;18.244;2023-04-06T05:14:54;44.60;;;22.60;;
57327;SDS011;43162;51.040;18.244;2023-04-06T05:17:20;43.70;;;23.20;;
57327;SDS011;43162;51.040;18.244;2023-04-06T05:19:46;47.10;;;22.70;;
57327;SDS011;43162;51.040;18.244;2023-04-06T05:22:12;44.10;;;21.10;;
57327;SDS011;43162;51.040;18.244;2023-04-06T05:24:39;48.90;;;22.30;;
57327;SDS011;43162;51.040;18.244;2023-04-06T05:27:05;42.40;;;22.40;;
57327;SDS011;43162;51.040;18.244;2023-04-06T05:29:31;43.90;;;22.30;;
57327;SDS011;43162;51.040;18.244;2023-04-06T05:31:57;37.80;;;21.20;;
57327;SDS011;43162;51.040;18.244;2023-04-06T05:34:22;35.00;;;19.30;;
57327;SDS011;43162;51.040;18.244;2023-04-06T05:36:48;44.80;;;21.90;;
57327;SDS011;43162;51.040;18.244;2023-04-06T05:39:14;48.40;;;24.00;;
57327;SDS011;43162;51.040;18.244;2023-04-06T05:41:40;57.90;;;27.60;;
57327;SDS011;43162;51.040;18.244;2023-04-06T05:44:05;58.90;;;23.60;;
57327;SDS011;43162;51.040;18.244;2023-04-06T05:46:31;46.40;;;23.70;;
57327;SDS011;43162;51.040;18.244;2023-04-06T05:48:56;42.60;;;23.40;;
57327;SDS011;43162;51.040;18.244;2023-04-06T05:51:22;49.60;;;24.80;;
57327;SDS011;43162;51.040;18.244;2023-04-06T05:53:48;48.00;;;24.20;;
57327;SDS011;43162;51.040;18.244;2023-04-06T05:56:13;48.70;;;25.50;;
57327;SDS011;43162;51.040;18.244;2023-04-06T05:58:39;63.50;;;26.20;;
57327;SDS011;43162;51.040;18.244;2023-04-06T06:01:05;51.30;;;28.50;;
57327;SDS011;43162;51.040;18.244;2023-04-06T06:03:30;50.50;;;26.00;;
57327;SDS011;43162;51.040;18.244;2023-04-06T06:06:03;49.40;;;26.10;;
57327;SDS011;43162;51.040;18.244;2023-04-06T06:08:29;51.00;;;25.00;;
57327;SDS011;43162;51.040;18.244;2023-04-06T06:10:55;51.20;;;26.80;;
57327;SDS011;43162;51.040;18.244;2023-04-06T06:13:24;57.80;;;27.10;;
57327;SDS011;43162;51.040;18.244;2023-04-06T06:15:50;60.80;;;29.50;;
57327;SDS011;43162;51.040;18.244;2023-04-06T06:18:16;85.70;;;38.90;;
57327;SDS011;43162;51.040;18.244;2023-04-06T06:20:42;88.00;;;38.20;;
57327;SDS011;43162;51.040;18.244;2023-04-06T06:23:08;78.30;;;37.50;;
57327;SDS011;43162;51.040;18.244;2023-04-06T06:25:33;85.50;;;36.20;;
57327;SDS011;43162;51.040;18.244;2023-04-06T06:27:59;67.20;;;33.20;;
57327;SDS011;43162;51.040;18.244;2023-04-06T06:30:25;71.60;;;34.90;;
57327;SDS011;43162;51.040;18.244;2023-04-06T06:32:51;60.60;;;31.90;;
57327;SDS011;43162;51.040;18.244;2023-04-06T06:35:17;52.10;;;27.50;;
57327;SDS011;43162;51.040;18.244;2023-04-06T06:37:42;54.70;;;27.00;;
57327;SDS011;43162;51.040;18.244;2023-04-06T06:40:09;63.60;;;29.70;;
57327;SDS011;43162;51.040;18.244;2023-04-06T06:42:35;55.30;;;29.50;;
57327;SDS011;43162;51.040;18.244;2023-04-06T06:45:02;48.00;;;23.70;;
57327;SDS011;43162;51.040;18.244;2023-04-06T06:47:28;58.20;;;29.10;;
57327;SDS011;43162;51.040;18.244;2023-04-06T06:49:54;83.80;;;34.00;;
57327;SDS011;43162;51.040;18.244;2023-04-06T06:52:20;65.30;;;33.50;;
57327;SDS011;43162;51.040;18.244;2023-04-06T06:54:47;53.70;;;26.80;;
57327;SDS011;43162;51.040;18.244;2023-04-06T06:57:12;54.30;;;25.20;;
57327;SDS011;43162;51.040;18.244;2023-04-06T06:59:38;48.60;;;25.30;;
57327;SDS011;43162;51.040;18.244;2023-04-06T07:02:03;45.60;;;26.80;;
57327;SDS011;43162;51.040;18.244;2023-04-06T07:04:29;49.00;;;27.00;;
57327;SDS011;43162;51.040;18.244;2023-04-06T07:06:55;45.30;;;24.30;;
57327;SDS011;43162;51.040;18.244;2023-04-06T07:09:21;48.30;;;24.30;;
57327;SDS011;43162;51.040;18.244;2023-04-06T07:11:47;50.20;;;25.90;;
57327;SDS011;43162;51.040;18.244;2023-04-06T07:14:14;52.20;;;26.30;;
57327;SDS011;43162;51.040;18.244;2023-04-06T07:16:40;44.80;;;25.90;;
57327;SDS011;43162;51.040;18.244;2023-04-06T07:19:06;52.60;;;26.00;;
57327;SDS011;43162;51.040;18.244;2023-04-06T07:21:32;55.50;;;25.70;;
57327;SDS011;43162;51.040;18.244;2023-04-06T07:23:58;57.20;;;25.30;;
57327;SDS011;43162;51.040;18.244;2023-04-06T07:26:23;38.70;;;21.70;;
57327;SDS011;43162;51.040;18.244;2023-04-06T07:28:49;42.80;;;22.30;;
57327;SDS011;43162;51.040;18.244;2023-04-06T07:31:15;50.10;;;23.40;;
57327;SDS011;43162;51.040;18.244;2023-04-06T07:33:41;36.90;;;20.70;;
57327;SDS011;43162;51.040;18.244;2023-04-06T07:36:06;45.10;;;21.00;;
57327;SDS011;43162;51.040;18.244;2023-04-06T07:38:33;36.90;;;19.80;;
57327;SDS011;43162;51.040;18.244;2023-04-06T07:40:59;36.90;;;18.50;;
57327;SDS011;43162;51.040;18.244;2023-04-06T07:43:25;34.90;;;18.60;;
57327;SDS011;43162;51.040;18.244;2023-04-06T07:45:51;37.20;;;20.20;;
57327;SDS011;43162;51.040;18.244;2023-04-06T07:48:16;33.10;;;16.50;;
57327;SDS011;43162;51.040;18.244;2023-04-06T07:50:42;28.00;;;15.30;;
57327;SDS011;43162;51.040;18.244;2023-04-06T07:53:08;29.30;;;16.10;;
57327;SDS011;43162;51.040;18.244;2023-04-06T07:55:34;25.70;;;15.50;;
57327;SDS011;43162;51.040;18.244;2023-04-06T07:58:00;27.90;;;15.80;;
57327;SDS011;43162;51.040;18.244;2023-04-06T08:00:26;22.30;;;13.80;;
57327;SDS011;43162;51.040;18.244;2023-04-06T08:02:51;24.90;;;13.10;;
57327;SDS011;43162;51.040;18.244;2023-04-06T08:05:17;22.40;;;12.90;;
57327;SDS011;43162;51.040;18.244;2023-04-06T08:07:43;33.40;;;14.40;;
57327;SDS011;43162;51.040;18.244;2023-04-06T08:10:09;16.40;;;10.50;;
57327;SDS011;43162;51.040;18.244;2023-04-06T08:12:35;19.80;;;11.70;;
57327;SDS011;43162;51.040;18.244;2023-04-06T08:15:01;16.30;;;9.80;;
57327;SDS011;43162;51.040;18.244;2023-04-06T08:17:28;23.50;;;11.60;;
57327;SDS011;43162;51.040;18.244;2023-04-06T08:19:56;18.40;;;9.80;;
57327;SDS011;43162;51.040;18.244;2023-04-06T08:22:22;22.90;;;10.40;;
57327;SDS011;43162;51.040;18.244;2023-04-06T08:24:47;20.40;;;10.40;;
57327;SDS011;43162;51.040;18.244;2023-04-06T08:27:13;19.80;;;10.30;;
57327;SDS011;43162;51.040;18.244;2023-04-06T08:29:40;13.40;;;8.60;;
57327;SDS011;43162;51.040;18.244;2023-04-06T08:32:06;16.20;;;8.70;;
57327;SDS011;43162;51.040;18.244;2023-04-06T08:34:32;17.20;;;8.20;;
57327;SDS011;43162;51.040;18.244;2023-04-06T08:36:58;12.40;;;6.60;;
57327;SDS011;43162;51.040;18.244;2023-04-06T08:39:25;12.30;;;8.00;;
57327;SDS011;43162;51.040;18.244;2023-04-06T08:41:52;13.50;;;7.90;;
57327;SDS011;43162;51.040;18.244;2023-04-06T08:44:22;16.20;;;8.50;;
57327;SDS011;43162;51.040;18.244;2023-04-06T08:46:48;12.00;;;8.20;;
57327;SDS011;43162;51.040;18.244;2023-04-06T08:49:15;17.80;;;8.70;;
57327;SDS011;43162;51.040;18.244;2023-04-06T08:51:41;16.30;;;7.00;;
57327;SDS011;43162;51.040;18.244;2023-04-06T08:54:07;14.50;;;8.70;;
57327;SDS011;43162;51.040;18.244;2023-04-06T08:56:33;15.60;;;9.30;;
57327;SDS011;43162;51.040;18.244;2023-04-06T08:59:01;20.50;;;11.90;;
57327;SDS011;43162;51.040;18.244;2023-04-06T09:01:28;24.20;;;11.60;;
57327;SDS011;43162;51.040;18.244;2023-04-06T09:03:55;17.90;;;8.10;;
57327;SDS011;43162;51.040;18.244;2023-04-06T09:06:22;15.50;;;8.00;;
57327;SDS011;43162;51.040;18.244;2023-04-06T09:08:48;9.50;;;7.00;;
57327;SDS011;43162;51.040;18.244;2023-04-06T09:11:14;11.50;;;6.30;;
57327;SDS011;43162;51.040;18.244;2023-04-06T09:13:50;13.20;;;7.10;;
57327;SDS011;43162;51.040;18.244;2023-04-06T09:16:17;10.60;;;7.10;;
57327;SDS011;43162;51.040;18.244;2023-04-06T09:18:44;13.10;;;6.40;;
57327;SDS011;43162;51.040;18.244;2023-04-06T09:21:11;8.80;;;5.70;;
57327;SDS011;43162;51.040;18.244;2023-04-06T09:23:37;7.80;;;5.50;;
57327;SDS011;43162;51.040;18.244;2023-04-06T09:26:10;6.80;;;5.90;;
57327;SDS011;43162;51.040;18.244;2023-04-06T09:31:31;9.90;;;5.00;;
57327;SDS011;43162;51.040;18.244;2023-04-06T09:34:00;6.90;;;5.10;;
57327;SDS011;43162;51.040;18.244;2023-04-06T09:36:32;10.10;;;6.10;;
57327;SDS011;43162;51.040;18.244;2023-04-06T09:38:59;9.50;;;6.10;;
57327;SDS011;43162;51.040;18.244;2023-04-06T09:41:35;9.60;;;5.50;;
57327;SDS011;43162;51.040;18.244;2023-04-06T09:44:10;8.70;;;6.10;;
57327;SDS011;43162;51.040;18.244;2023-04-06T09:49:04;10.60;;;6.80;;
57327;SDS011;43162;51.040;18.244;2023-04-06T09:51:31;13.20;;;8.00;;
57327;SDS011;43162;51.040;18.244;2023-04-06T09:54:02;7.80;;;6.50;;
57327;SDS011;43162;51.040;18.244;2023-04-06T10:01:52;8.80;;;5.70;;
57327;SDS011;43162;51.040;18.244;2023-04-06T10:06:51;13.40;;;6.50;;
57327;SDS011;43162;51.040;18.244;2023-04-06T10:09:18;7.20;;;5.70;;
57327;SDS011;43162;51.040;18.244;2023-04-06T10:11:45;12.30;;;7.40;;
57327;SDS011;43162;51.040;18.244;2023-04-06T10:14:11;11.80;;;6.20;;
57327;SDS011;43162;51.040;18.244;2023-04-06T10:16:37;13.90;;;7.90;;
57327;SDS011;43162;51.040;18.244;2023-04-06T10:19:06;10.80;;;6.90;;
57327;SDS011;43162;51.040;18.244;2023-04-06T10:21:37;9.00;;;6.40;;
57327;SDS011;43162;51.040;18.244;2023-04-06T10:24:06;9.50;;;6.30;;
57327;SDS011;43162;51.040;18.244;2023-04-06T10:26:35;8.40;;;6.70;;
57327;SDS011;43162;51.040;18.244;2023-04-06T10:29:02;12.20;;;6.80;;
57327;SDS011;43162;51.040;18.244;2023-04-06T10:31:29;14.40;;;9.40;;
57327;SDS011;43162;51.040;18.244;2023-04-06T10:33:59;12.50;;;7.50;;
57327;SDS011;43162;51.040;18.244;2023-04-06T10:36:26;14.10;;;7.60;;
57327;SDS011;43162;51.040;18.244;2023-04-06T10:38:59;7.30;;;4.90;;
57327;SDS011;43162;51.040;18.244;2023-04-06T10:41:40;10.20;;;5.40;;
57327;SDS011;43162;51.040;18.244;2023-04-06T10:44:07;9.60;;;6.00;;
57327;SDS011;43162;51.040;18.244;2023-04-06T10:46:33;12.50;;;8.40;;
57327;SDS011;43162;51.040;18.244;2023-04-06T10:49:12;6.30;;;3.40;;
57327;SDS011;43162;51.040;18.244;2023-04-06T10:51:38;9.90;;;6.00;;
57327;SDS011;43162;51.040;18.244;2023-04-06T10:54:05;13.20;;;5.60;;
57327;SDS011;43162;51.040;18.244;2023-04-06T10:56:31;10.60;;;5.90;;
57327;SDS011;43162;51.040;18.244;2023-04-06T10:58:59;15.20;;;6.90;;
57327;SDS011;43162;51.040;18.244;2023-04-06T11:01:25;11.60;;;6.70;;
57327;SDS011;43162;51.040;18.244;2023-04-06T11:03:54;10.40;;;6.10;;
57327;SDS011;43162;51.040;18.244;2023-04-06T11:06:22;6.40;;;4.30;;
57327;SDS011;43162;51.040;18.244;2023-04-06T11:08:49;9.50;;;6.20;;
57327;SDS011;43162;51.040;18.244;2023-04-06T11:11:18;13.40;;;7.80;;
57327;SDS011;43162;51.040;18.244;2023-04-06T11:16:23;10.60;;;5.80;;
57327;SDS011;43162;51.040;18.244;2023-04-06T11:18:57;10.60;;;4.70;;
57327;SDS011;43162;51.040;18.244;2023-04-06T11:21:38;10.90;;;6.80;;
57327;SDS011;43162;51.040;18.244;2023-04-06T11:24:21;13.20;;;6.10;;
57327;SDS011;43162;51.040;18.244;2023-04-06T11:26:51;9.00;;;5.60;;
57327;SDS011;43162;51.040;18.244;2023-04-06T11:29:29;12.10;;;7.20;;
57327;SDS011;43162;51.040;18.244;2023-04-06T11:31:59;11.40;;;6.00;;
57327;SDS011;43162;51.040;18.244;2023-04-06T11:34:27;10.40;;;6.60;;
57327;SDS011;43162;51.040;18.244;2023-04-06T11:36:55;14.70;;;7.60;;
57327;SDS011;43162;51.040;18.244;2023-04-06T11:39:23;9.10;;;5.90;;
57327;SDS011;43162;51.040;18.244;2023-04-06T11:41:50;14.20;;;6.00;;
57327;SDS011;43162;51.040;18.244;2023-04-06T11:47:14;15.20;;;7.50;;
57327;SDS011;43162;51.040;18.244;2023-04-06T11:49:41;12.80;;;6.70;;
57327;SDS011;43162;51.040;18.244;2023-04-06T11:52:23;18.50;;;8.80;;
57327;SDS011;43162;51.040;18.244;2023-04-06T11:54:51;8.60;;;6.90;;
57327;SDS011;43162;51.040;18.244;2023-04-06T11:57:18;12.10;;;7.50;;
57327;SDS011;43162;51.040;18.244;2023-04-06T11:59:45;16.60;;;9.10;;
57327;SDS011;43162;51.040;18.244;2023-04-06T12:02:11;14.10;;;10.30;;
57327;SDS011;43162;51.040;18.244;2023-04-06T12:04:36;12.10;;;8.30;;
57327;SDS011;43162;51.040;18.244;2023-04-06T12:07:02;21.50;;;9.70;;
57327;SDS011;43162;51.040;18.244;2023-04-06T12:09:29;15.00;;;8.20;;
57327;SDS011;43162;51.040;18.244;2023-04-06T12:11:54;13.90;;;6.50;;
57327;SDS011;43162;51.040;18.244;2023-04-06T12:14:21;9.10;;;7.30;;
57327;SDS011;43162;51.040;18.244;2023-04-06T12:16:47;11.00;;;6.20;;
57327;SDS011;43162;51.040;18.244;2023-04-06T12:19:13;12.10;;;7.10;;
57327;SDS011;43162;51.040;18.244;2023-04-06T12:21:38;9.40;;;6.60;;
57327;SDS011;43162;51.040;18.244;2023-04-06T12:24:05;13.50;;;7.00;;
57327;SDS011;43162;51.040;18.244;2023-04-06T12:26:31;12.70;;;6.50;;
57327;SDS011;43162;51.040;18.244;2023-04-06T12:29:01;12.80;;;7.50;;
57327;SDS011;43162;51.040;18.244;2023-04-06T12:31:32;21.70;;;10.10;;
57327;SDS011;43162;51.040;18.244;2023-04-06T12:33:59;20.20;;;9.90;;
57327;SDS011;43162;51.040;18.244;2023-04-06T12:36:26;21.10;;;10.10;;
57327;SDS011;43162;51.040;18.244;2023-04-06T12:38:52;21.50;;;6.60;;
57327;SDS011;43162;51.040;18.244;2023-04-06T12:41:18;19.30;;;6.80;;
57327;SDS011;43162;51.040;18.244;2023-04-06T12:43:44;15.90;;;8.80;;
57327;SDS011;43162;51.040;18.244;2023-04-06T12:46:10;6.70;;;5.00;;
57327;SDS011;43162;51.040;18.244;2023-04-06T12:48:37;9.30;;;6.30;;
57327;SDS011;43162;51.040;18.244;2023-04-06T12:51:03;10.50;;;6.60;;
57327;SDS011;43162;51.040;18.244;2023-04-06T12:53:30;13.70;;;6.90;;
57327;SDS011;43162;51.040;18.244;2023-04-06T12:55:57;11.40;;;7.20;;
57327;SDS011;43162;51.040;18.244;2023-04-06T12:58:23;24.10;;;11.30;;
57327;SDS011;43162;51.040;18.244;2023-04-06T13:00:51;20.10;;;9.70;;
57327;SDS011;43162;51.040;18.244;2023-04-06T13:03:18;13.80;;;8.40;;
57327;SDS011;43162;51.040;18.244;2023-04-06T13:05:45;17.10;;;10.20;;
57327;SDS011;43162;51.040;18.244;2023-04-06T13:08:12;19.00;;;9.50;;
57327;SDS011;43162;51.040;18.244;2023-04-06T13:10:42;16.40;;;10.90;;
57327;SDS011;43162;51.040;18.244;2023-04-06T13:13:09;17.00;;;9.90;;
57327;SDS011;43162;51.040;18.244;2023-04-06T13:15:35;14.60;;;8.00;;
57327;SDS011;43162;51.040;18.244;2023-04-06T13:18:02;10.90;;;7.60;;
57327;SDS011;43162;51.040;18.244;2023-04-06T13:20:28;18.50;;;11.00;;
57327;SDS011;43162;51.040;18.244;2023-04-06T13:22:53;12.10;;;8.90;;
57327;SDS011;43162;51.040;18.244;2023-04-06T13:25:19;14.90;;;7.80;;
57327;SDS011;43162;51.040;18.244;2023-04-06T13:27:45;13.10;;;8.30;;
57327;SDS011;43162;51.040;18.244;2023-04-06T13:30:13;13.10;;;7.70;;
57327;SDS011;43162;51.040;18.244;2023-04-06T13:32:39;16.00;;;8.60;;
57327;SDS011;43162;51.040;18.244;2023-04-06T13:35:05;16.40;;;10.00;;
57327;SDS011;43162;51.040;18.244;2023-04-06T13:37:33;14.90;;;10.80;;
57327;SDS011;43162;51.040;18.244;2023-04-06T13:39:59;17.40;;;12.00;;
57327;SDS011;43162;51.040;18.244;2023-04-06T13:42:26;23.20;;;12.80;;
57327;SDS011;43162;51.040;18.244;2023-04-06T13:44:54;24.30;;;11.60;;
57327;SDS011;43162;51.040;18.244;2023-04-06T13:47:19;22.20;;;10.80;;
57327;SDS011;43162;51.040;18.244;2023-04-06T13:49:49;19.80;;;11.10;;
57327;SDS011;43162;51.040;18.244;2023-04-06T13:52:16;30.30;;;15.40;;
57327;SDS011;43162;51.040;18.244;2023-04-06T13:54:42;24.60;;;12.70;;
57327;SDS011;43162;51.040;18.244;2023-04-06T13:57:08;23.90;;;11.90;;
57327;SDS011;43162;51.040;18.244;2023-04-06T13:59:34;15.30;;;9.10;;
57327;SDS011;43162;51.040;18.244;2023-04-06T14:02:01;29.00;;;12.00;;
57327;SDS011;43162;51.040;18.244;2023-04-06T14:04:27;14.70;;;9.80;;
57327;SDS011;43162;51.040;18.244;2023-04-06T14:06:53;21.90;;;11.50;;
57327;SDS011;43162;51.040;18.244;2023-04-06T14:09:19;13.20;;;8.80;;
57327;SDS011;43162;51.040;18.244;2023-04-06T14:11:44;16.50;;;10.30;;
57327;SDS011;43162;51.040;18.244;2023-04-06T14:14:10;16.70;;;11.20;;
57327;SDS011;43162;51.040;18.244;2023-04-06T14:16:35;14.60;;;8.90;;
57327;SDS011;43162;51.040;18.244;2023-04-06T14:19:01;17.50;;;10.10;;
57327;SDS011;43162;51.040;18.244;2023-04-06T14:21:27;16.00;;;10.80;;
57327;SDS011;43162;51.040;18.244;2023-04-06T14:23:53;23.60;;;13.70;;
57327;SDS011;43162;51.040;18.244;2023-04-06T14:26:19;16.40;;;11.40;;
57327;SDS011;43162;51.040;18.244;2023-04-06T14:28:44;18.00;;;11.90;;